Arlington, Kansas
Current Conditions -  °F | °C
As of 4:52 PM on Friday 31 Oct 2014 (Local Time) from KHUT Reporting Station
Clear Clear  
Wind Chill: 45°   Ceiling: Unl
Heat Index: 49°   Visibility: 10mi
Dew Point: 17°   Wind: 10mph
Humidity: 28%   Direction: 70°ENE
Pressure: 30.43"   Gusts: NA
Location:  37.9°N, 98.18°W
Report Text: KHUT 312152Z 07009KT 10SM CLR 09/M08 A3043 RMK AO2 SLP303 T00941083
Loading
Personal Weather Stations






























Interactive Weather Map
Tropical Storm Tracking
New forecast layout! Learn more

10-Day Weather Forecast

Advertisements
Track Severe Weather on mobile